Time;durP1;ratioP1;P1;durP2;ratioP2;P2;SDS_P1;SDS_P2;PMS_P1;PMS_P2;Temp;Humidity;BMP_temperature;BMP_pressure;BME280_temperature;BME280_humidity;BME280_pressure;Samples;Min_cycle;Max_cycle;Signal;HPM_P1;HPM_P2
2022/06/12 00:02:13;;;;;;;4.85;4.55;;;;;;;19.70;70.92;100549.38;4990818;28;104062;-52
2022/06/12 00:04:41;;;;;;;5.15;4.78;;;;;;;19.68;70.92;100538.66;4976424;28;102301;-52
2022/06/12 00:07:08;;;;;;;4.40;4.10;;;;;;;19.69;70.62;100537.53;4977072;28;102278;-53
2022/06/12 00:09:34;;;;;;;4.60;4.20;;;;;;;19.69;70.70;100545.81;4984174;28;102929;-53
2022/06/12 00:12:01;;;;;;;5.07;4.57;;;;;;;19.69;70.94;100543.06;4992518;28;103839;-53
2022/06/12 00:14:27;;;;;;;4.95;4.55;;;;;;;19.69;71.02;100537.53;4995840;28;101951;-53
2022/06/12 00:16:55;;;;;;;4.97;4.43;;;;;;;19.68;70.78;100541.41;4995920;28;102386;-53
2022/06/12 00:19:22;;;;;;;4.33;4.03;;;;;;;19.69;70.93;100540.28;4995983;28;102460;-53
2022/06/12 00:21:50;;;;;;;4.30;4.00;;;;;;;19.68;70.85;100541.41;4993337;28;104972;-52
2022/06/12 00:24:19;;;;;;;4.72;4.32;;;;;;;19.69;70.64;100543.06;4986178;28;102436;-53
2022/06/12 00:26:48;;;;;;;5.10;4.75;;;;;;;19.68;70.78;100541.41;4995178;28;102322;-53
2022/06/12 00:29:19;;;;;;;4.82;4.43;;;;;;;19.67;71.01;100545.34;4990329;28;102473;-52
2022/06/12 00:31:51;;;;;;;5.47;4.97;;;;;;;19.68;70.79;100541.41;4989815;28;103462;-53
2022/06/12 00:34:23;;;;;;;4.75;4.32;;;;;;;19.68;70.84;100544.19;4984773;28;102062;-53
2022/06/12 00:36:50;;;;;;;4.55;4.25;;;;;;;19.68;70.95;100535.91;4993705;28;102217;-52
2022/06/12 00:39:17;;;;;;;5.28;4.80;;;;;;;19.67;70.95;100539.81;4996437;28;102241;-53
2022/06/12 00:41:48;;;;;;;5.18;4.32;;;;;;;19.68;70.71;100541.41;4995600;28;103897;-52
2022/06/12 00:44:19;;;;;;;5.10;4.80;;;;;;;19.68;70.70;100536.69;4986735;28;102395;-53
2022/06/12 00:46:49;;;;;;;4.78;4.38;;;;;;;19.67;70.91;100531.53;4990156;28;102746;-53
2022/06/12 00:49:28;;;;;;;5.28;4.88;;;;;;;19.68;70.99;100541.41;4993946;28;102099;-53
2022/06/12 00:51:56;;;;;;;;;;;;;;;19.66;70.71;100536.25;4996429;28;103955;-53
2022/06/12 00:54:24;;;;;;;;;;;;;;;19.67;71.01;100534.28;4995801;28;106551;-53
2022/06/12 00:56:54;;;;;;;5.03;4.63;;;;;;;19.67;70.79;100535.09;4996112;28;102015;-53
2022/06/12 00:59:32;;;;;;;5.03;4.57;;;;;;;19.68;70.84;100535.91;4996655;28;102269;-53
2022/06/12 01:01:59;;;;;;;5.05;4.65;;;;;;;19.67;70.89;100534.28;4992721;28;108059;-53
2022/06/12 01:07:21;;;;;;;4.68;4.32;;;;;;;19.67;70.96;100537.06;4991460;28;102053;-53
2022/06/12 01:09:52;;;;;;;4.75;4.35;;;;;;;19.67;70.87;100528.75;4996150;28;102364;-52
2022/06/12 01:12:22;;;;;;;4.90;4.50;;;;;;;19.65;70.86;100520.00;4995718;28;103896;-52
2022/06/12 01:14:52;;;;;;;4.45;4.15;;;;;;;19.65;71.00;100529.13;4991546;28;102461;-53
2022/06/12 01:17:21;;;;;;;5.28;4.88;;;;;;;19.66;70.80;100516.13;4994958;28;102247;-53
2022/06/12 01:19:53;;;;;;;5.50;4.95;;;;;;;19.66;70.86;100518.88;4995820;28;102485;-53
2022/06/12 01:22:50;;;;;;;5.00;4.60;;;;;;;19.65;70.84;100528.28;4991805;28;104328;-53
2022/06/12 01:25:33;;;;;;;5.10;4.70;;;;;;;19.65;70.86;100536.56;4964090;28;103777;-53
2022/06/12 01:28:42;;;;;;;5.20;4.80;;;;;;;19.65;70.67;100537.41;4975603;28;101975;-53
2022/06/12 01:31:24;;;;;;;5.30;4.90;;;;;;;19.66;70.88;100538.19;4975950;28;102202;-53
2022/06/12 01:33:58;;;;;;;4.97;4.60;;;;;;;19.65;71.22;100528.28;4978360;28;104138;-53
2022/06/12 01:36:31;;;;;;;5.63;4.90;;;;;;;19.66;71.09;100527.16;4990041;28;103054;-53
2022/06/12 01:39:09;;;;;;;5.25;4.85;;;;;;;19.65;70.86;100542.91;4993486;28;102405;-53
2022/06/12 01:41:47;;;;;;;5.22;4.82;;;;;;;19.65;71.04;100531.03;4996102;28;102393;-53
2022/06/12 01:44:22;;;;;;;5.35;4.90;;;;;;;19.65;70.66;100525.53;4994248;28;103896;-53
2022/06/12 01:46:59;;;;;;;5.68;5.22;;;;;;;19.65;71.21;100531.88;4992945;28;102044;-53
2022/06/12 01:49:32;;;;;;;5.03;4.63;;;;;;;19.65;71.20;100520.00;4993435;28;102310;-52
2022/06/12 01:52:09;;;;;;;5.28;4.80;;;;;;;19.65;71.07;100520.00;4994827;28;102145;-53
2022/06/12 01:54:44;;;;;;;5.00;4.60;;;;;;;19.65;70.84;100520.00;4990966;28;103947;-53
2022/06/12 01:57:19;;;;;;;4.80;4.40;;;;;;;19.65;71.13;100517.25;4987141;28;102301;-53
2022/06/12 01:59:52;;;;;;;4.75;4.35;;;;;;;19.64;71.12;100523.91;4992898;28;102284;-53
2022/06/12 02:02:25;;;;;;;4.75;4.45;;;;;;;19.65;71.01;100520.00;4997950;28;102539;-53
2022/06/12 02:04:58;;;;;;;4.82;4.40;;;;;;;19.65;70.88;100520.00;4993909;28;108205;-54
2022/06/12 02:07:33;;;;;;;5.13;4.30;;;;;;;19.65;71.15;100522.75;4997152;28;102295;-53
2022/06/12 02:10:05;;;;;;;5.05;4.63;;;;;;;19.65;71.05;100528.28;4984324;28;102079;-53
2022/06/12 02:15:27;;;;;;;4.80;4.40;;;;;;;19.65;71.22;100533.81;4991028;28;104315;-53
2022/06/12 02:17:58;;;;;;;5.35;4.95;;;;;;;19.66;71.04;100538.19;4996913;28;102579;-53
2022/06/12 02:20:33;;;;;;;4.90;4.38;;;;;;;19.64;71.03;100535.75;4976047;28;102420;-53
2022/06/12 02:23:04;;;;;;;4.70;4.25;;;;;;;19.64;71.04;100533.00;4978087;28;102446;-53
2022/06/12 02:25:35;;;;;;;4.88;4.40;;;;;;;19.65;71.05;100542.09;4977386;28;103813;-53
2022/06/12 02:28:08;;;;;;;4.75;4.40;;;;;;;19.64;70.71;100541.28;4991261;28;102422;-52
2022/06/12 02:30:38;;;;;;;4.65;4.35;;;;;;;19.64;70.81;100541.28;4994961;28;102401;-53
2022/06/12 02:33:12;;;;;;;4.68;4.28;;;;;;;19.66;70.97;100538.19;4995904;28;102687;-53
2022/06/12 02:35:44;;;;;;;4.53;4.22;;;;;;;19.65;70.98;100542.91;4982705;28;104207;-53
2022/06/12 02:38:19;;;;;;;4.60;4.30;;;;;;;19.65;70.81;100542.91;4977030;28;101979;-52
2022/06/12 02:40:51;;;;;;;4.60;4.20;;;;;;;19.65;70.77;100542.91;4989145;28;102209;-53
2022/06/12 02:43:28;;;;;;;4.88;4.47;;;;;;;19.66;70.83;100540.97;4997480;28;102584;-53
2022/06/12 02:45:58;;;;;;;4.88;4.47;;;;;;;19.66;70.91;100546.47;4993145;28;108143;-53
2022/06/12 02:48:27;;;;;;;4.70;4.40;;;;;;;19.67;70.93;100545.34;4996796;28;102208;-53
2022/06/12 02:51:01;;;;;;;4.53;4.10;;;;;;;19.65;70.94;100539.31;4994242;28;102418;-53
2022/06/12 02:53:46;;;;;;;4.32;4.00;;;;;;;19.66;71.05;100539.00;4997354;28;102194;-53
2022/06/12 02:56:20;;;;;;;4.72;4.43;;;;;;;19.66;70.97;100541.75;4994393;28;103666;-53
2022/06/12 02:58:55;;;;;;;5.07;4.68;;;;;;;19.67;70.94;100539.81;4996309;28;102301;-53
2022/06/12 03:01:29;;;;;;;5.10;4.70;;;;;;;19.67;70.98;100534.28;4992137;28;102607;-53
2022/06/12 03:04:07;;;;;;;4.45;4.15;;;;;;;19.68;70.78;100536.69;4997246;28;102212;-53
2022/06/12 03:06:34;;;;;;;4.57;4.27;;;;;;;19.68;70.70;100531.19;4994078;28;103980;-53
2022/06/12 03:09:02;;;;;;;4.75;4.30;;;;;;;19.68;70.91;100536.69;4995237;28;102009;-53
2022/06/12 03:11:33;;;;;;;4.60;4.20;;;;;;;19.70;70.63;100524.53;4980705;28;102194;-53
2022/06/12 03:14:01;;;;;;;4.00;3.70;;;;;;;19.69;70.81;100518.22;4986876;28;102434;-53
2022/06/12 03:16:31;;;;;;;4.35;4.05;;;;;;;19.70;70.88;100525.34;4993528;28;103867;-53
2022/06/12 03:19:06;;;;;;;4.47;4.10;;;;;;;19.70;70.43;100517.06;4995756;28;102345;-53
2022/06/12 03:21:41;;;;;;;4.13;3.83;;;;;;;19.72;70.58;100523.03;4990913;28;102170;-53
2022/06/12 03:24:41;;;;;;;4.50;4.20;;;;;;;19.72;70.63;100524.97;4995755;28;102349;-53
2022/06/12 03:27:18;;;;;;;4.40;4.00;;;;;;;19.73;70.86;100521.09;4994410;28;108390;-53
2022/06/12 03:29:55;;;;;;;4.13;3.83;;;;;;;19.73;70.69;100512.81;4992851;28;102084;-53
2022/06/12 03:32:29;;;;;;;4.53;4.13;;;;;;;19.73;70.49;100516.38;4994457;28;103708;-53
2022/06/12 03:35:06;;;;;;;4.32;3.92;;;;;;;19.74;70.59;100504.19;4992245;28;103037;-53
2022/06/12 03:37:40;;;;;;;4.35;3.95;;;;;;;19.75;70.63;100505.00;4993703;28;103844;-53
2022/06/12 03:40:16;;;;;;;4.40;4.10;;;;;;;19.74;70.56;100501.41;4995784;28;101961;-53
2022/06/12 03:42:51;;;;;;;4.25;3.85;;;;;;;19.74;70.34;100506.94;4995581;28;102253;-53
2022/06/12 03:45:23;;;;;;;4.05;3.75;;;;;;;19.75;70.57;100511.31;4994894;28;102348;-53
2022/06/12 03:47:56;;;;;;;4.95;4.55;;;;;;;19.76;70.65;100507.41;4995533;28;103949;-53
2022/06/12 03:50:33;;;;;;;4.20;3.90;;;;;;;19.76;70.42;100504.63;4995056;28;102434;-53
2022/06/12 03:53:06;;;;;;;4.63;4.22;;;;;;;19.76;70.55;100504.63;4992561;28;102271;-53
2022/06/12 03:58:28;;;;;;;4.50;4.10;;;;;;;19.75;70.53;100497.50;4974499;28;107750;-53
2022/06/12 04:00:55;;;;;;;4.20;3.90;;;;;;;19.77;70.65;100505.47;4985926;28;102594;-53
2022/06/12 04:03:25;;;;;;;4.40;4.00;;;;;;;19.78;70.77;100505.13;4991442;28;102120;-53
2022/06/12 04:05:57;;;;;;;4.18;3.78;;;;;;;19.79;70.65;100505.91;4994818;28;102167;-53
2022/06/12 04:08:28;;;;;;;5.55;4.10;;;;;;;19.78;70.40;100507.88;4991413;28;103922;-53
2022/06/12 04:10:57;;;;;;;4.72;4.40;;;;;;;19.78;70.81;100510.63;4992105;28;102527;-52
2022/06/12 04:13:24;;;;;;;4.53;4.18;;;;;;;19.79;70.75;100509.47;4992312;28;102350;-53
2022/06/12 04:15:55;;;;;;;3.95;3.65;;;;;;;19.79;70.44;100503.97;4990929;28;102288;-53
2022/06/12 04:18:24;;;;;;;4.82;4.40;;;;;;;19.79;70.54;100509.47;4994110;28;104087;-53
2022/06/12 04:20:57;;;;;;;4.43;4.03;;;;;;;19.80;70.38;100502.84;4992862;28;102252;-53
2022/06/12 04:23:33;;;;;;;4.35;4.05;;;;;;;19.81;70.47;100511.94;4989524;28;102625;-53
2022/06/12 04:26:04;;;;;;;5.05;4.30;;;;;;;19.81;70.62;100514.69;4992734;28;102293;-53
2022/06/12 04:28:33;;;;;;;4.93;4.57;;;;;;;19.81;70.69;100515.50;4991626;28;103994;-53
2022/06/12 04:31:02;;;;;;;4.80;4.40;;;;;;;19.82;70.61;100522.63;4993714;28;102531;-53
2022/06/12 04:33:41;;;;;;;;;;;;;;;19.82;70.63;100522.63;4991510;28;102594;-53
2022/06/12 04:36:10;;;;;;;4.47;4.07;;;;;;;19.83;70.68;100524.22;4987920;28;102623;-53
2022/06/12 04:38:37;;;;;;;4.50;4.10;;;;;;;19.84;70.75;100528.63;4994240;28;104225;-53
2022/06/12 04:41:04;;;;;;;5.00;4.60;;;;;;;19.84;70.46;100533.34;4992406;28;102139;-53
2022/06/12 04:43:31;;;;;;;4.82;4.43;;;;;;;19.84;70.55;100531.38;4989680;28;102193;-53
2022/06/12 04:46:00;;;;;;;4.65;4.20;;;;;;;19.85;70.69;100529.44;4994644;28;102335;-53
2022/06/12 04:48:40;;;;;;;4.40;4.10;;;;;;;19.84;70.59;100534.16;4993836;28;104831;-53
2022/06/12 04:51:10;;;;;;;4.45;4.10;;;;;;;19.85;70.53;100535.75;4991789;28;102122;-53
2022/06/12 04:53:37;;;;;;;5.00;4.32;;;;;;;19.87;70.57;100533.47;4984841;28;102091;-53
2022/06/12 04:56:05;;;;;;;4.47;4.07;;;;;;;19.87;70.43;100532.66;4993577;28;102651;-53
2022/06/12 04:58:33;;;;;;;4.25;3.95;;;;;;;19.87;70.48;100533.47;4991493;28;103914;-53
2022/06/12 05:01:00;;;;;;;4.65;4.25;;;;;;;19.89;70.54;100539.44;4992359;28;102597;-53
2022/06/12 05:03:28;;;;;;;4.53;4.13;;;;;;;19.89;70.73;100542.22;4990507;28;102114;-53
2022/06/12 05:05:56;;;;;;;4.87;4.47;;;;;;;19.90;70.21;100543.81;4990532;28;102063;-53
2022/06/12 05:08:26;;;;;;;4.32;3.92;;;;;;;19.91;70.44;100539.13;4992167;28;103414;-53
2022/06/12 05:10:54;;;;;;;4.93;4.43;;;;;;;19.91;70.52;100541.91;4990589;28;102254;-53
2022/06/12 05:13:21;;;;;;;4.78;4.38;;;;;;;19.92;70.68;100535.22;4990377;28;102492;-53
2022/06/12 05:15:47;;;;;;;5.28;4.78;;;;;;;19.92;70.31;100547.06;4985528;28;102671;-53
2022/06/12 05:18:17;;;;;;;4.63;4.22;;;;;;;19.93;70.42;100545.91;4990147;28;103959;-53
2022/06/12 05:20:45;;;;;;;4.60;4.20;;;;;;;19.96;70.53;100547.19;4992708;28;102305;-53
2022/06/12 05:23:12;;;;;;;4.32;4.03;;;;;;;19.99;70.60;100552.03;4993509;28;101822;-53
2022/06/12 05:25:43;;;;;;;5.07;4.68;;;;;;;20.01;70.58;100557.22;4990201;28;107494;-53
2022/06/12 05:28:11;;;;;;;4.57;4.18;;;;;;;20.02;70.25;100556.91;4988142;28;104028;-53
2022/06/12 05:30:39;;;;;;;4.28;3.97;;;;;;;20.04;70.63;100565.63;4993200;28;102441;-53
2022/06/12 05:33:06;;;;;;;4.45;4.05;;;;;;;20.06;70.45;100562.56;4993211;28;102612;-53
2022/06/12 05:35:35;;;;;;;11.65;4.72;;;;;;;20.07;70.13;100566.91;4992880;28;102155;-53
2022/06/12 05:38:02;;;;;;;5.43;3.95;;;;;;;20.09;70.27;100564.63;4991857;28;104052;-53
2022/06/12 05:40:32;;;;;;;5.15;4.68;;;;;;;20.09;70.63;100557.16;4991288;28;102577;-51
2022/06/12 05:43:00;;;;;;;7.95;4.50;;;;;;;20.11;70.12;100559.56;4993899;28;102379;-52
2022/06/12 05:45:29;;;;;;;4.43;4.03;;;;;;;20.14;70.32;100558.91;4992869;28;102767;-51
2022/06/12 05:47:59;;;;;;;4.18;3.88;;;;;;;20.17;70.22;100563.75;4991488;28;103933;-52
2022/06/12 05:50:29;;;;;;;4.53;4.07;;;;;;;20.18;70.03;100565.34;4987369;28;102299;-52
2022/06/12 05:52:57;;;;;;;4.70;4.30;;;;;;;20.19;70.02;100566.16;4988902;28;102182;-52
2022/06/12 05:55:24;;;;;;;4.00;3.70;;;;;;;20.20;70.11;100557.53;4991331;28;102140;-51
2022/06/12 05:57:51;;;;;;;4.68;4.28;;;;;;;20.19;70.09;100561.44;4990732;28;103368;-52
2022/06/12 06:00:24;;;;;;;6.80;4.07;;;;;;;20.20;69.98;100568.59;4990879;28;102462;-52
2022/06/12 06:02:51;;;;;;;4.80;4.10;;;;;;;20.22;69.94;100558.00;4986653;28;102101;-51
2022/06/12 06:05:19;;;;;;;4.63;4.22;;;;;;;20.23;70.01;100558.78;4987906;28;102383;-52
2022/06/12 06:07:48;;;;;;;5.00;4.50;;;;;;;20.23;69.96;100567.09;4985942;28;103909;-52
2022/06/12 06:10:19;;;;;;;7.03;4.25;;;;;;;20.23;69.94;100564.31;4986391;28;102169;-51
2022/06/12 06:12:46;;;;;;;4.63;4.22;;;;;;;20.24;69.91;100568.72;4992764;28;102672;-51
2022/06/12 06:15:13;;;;;;;5.18;4.40;;;;;;;20.24;69.97;100563.19;4991518;28;102285;-51
2022/06/12 06:17:45;;;;;;;4.70;4.30;;;;;;;20.25;70.03;100557.31;4991044;28;104039;-52
2022/06/12 06:20:16;;;;;;;5.40;4.47;;;;;;;20.26;69.89;100566.41;4987468;28;102494;-52
2022/06/12 06:22:43;;;;;;;5.20;4.70;;;;;;;20.27;69.79;100570.81;4989166;28;102333;-51
2022/06/12 06:25:10;;;;;;;4.10;3.80;;;;;;;20.28;69.98;100564.94;4995022;28;102591;-52
2022/06/12 06:27:37;;;;;;;4.97;4.10;;;;;;;20.29;70.00;100563.78;4984989;28;103879;-52
2022/06/12 06:30:04;;;;;;;4.55;4.15;;;;;;;20.31;69.42;100557.94;4990126;28;102235;-52
2022/06/12 06:32:32;;;;;;;5.78;4.50;;;;;;;20.30;69.84;100559.88;4988247;28;102193;-52
2022/06/12 06:35:00;;;;;;;4.95;4.00;;;;;;;20.31;69.96;100558.72;4985302;28;102326;-51
2022/06/12 06:37:27;;;;;;;4.63;4.13;;;;;;;20.31;69.67;100557.94;4983669;28;103518;-51
2022/06/12 06:39:54;;;;;;;4.63;4.10;;;;;;;20.33;69.83;100555.59;4994978;28;102016;-51
2022/06/12 06:42:20;;;;;;;4.47;4.18;;;;;;;20.33;69.62;100561.94;4989804;28;102168;-52
2022/06/12 06:47:33;;;;;;;4.47;4.07;;;;;;;20.35;69.83;100551.38;4991711;28;107830;-52
2022/06/12 06:50:00;;;;;;;4.57;4.18;;;;;;;20.34;69.80;100558.06;4994583;28;102182;-52
2022/06/12 06:52:33;;;;;;;5.15;4.30;;;;;;;20.38;69.77;100553.44;5007693;22;102561;-92
2022/06/12 06:55:01;;;;;;;5.00;4.50;;;;;;;20.36;69.63;100558.50;5017301;28;102135;-92
2022/06/12 06:57:31;;;;;;;4.47;4.07;;;;;;;20.36;69.76;100569.56;5011567;28;103290;-92
2022/06/12 07:00:03;;;;;;;5.60;4.40;;;;;;;20.38;69.71;100570.03;5030292;22;102518;-88
2022/06/12 07:02:34;;;;;;;7.72;4.25;;;;;;;20.36;69.91;100577.84;4983439;28;102026;-88
2022/06/12 07:05:02;;;;;;;7.22;4.53;;;;;;;20.38;69.68;100566.47;4987076;28;102162;-88
2022/06/12 07:07:29;;;;;;;5.22;4.72;;;;;;;20.38;69.62;100572.81;4994798;28;103006;-88
2022/06/12 07:09:56;;;;;;;5.35;4.35;;;;;;;20.39;69.56;100570.84;4979868;28;102047;-88
2022/06/12 07:12:23;;;;;;;4.82;4.40;;;;;;;20.38;69.49;100570.03;4985553;28;102321;-88
2022/06/12 07:14:51;;;;;;;5.15;4.68;;;;;;;20.40;69.59;100567.72;4975156;28;102299;-88
2022/06/12 07:17:18;;;;;;;5.03;4.63;;;;;;;20.40;69.74;100562.19;4970353;28;104129;-88
2022/06/12 07:19:44;;;;;;;6.05;5.45;;;;;;;20.44;69.86;100558.75;4965466;28;102208;-88
2022/06/12 07:22:12;;;;;;;7.03;5.00;;;;;;;20.41;69.60;100568.53;4962077;28;102318;-88
2022/06/12 07:24:40;;;;;;;5.75;5.13;;;;;;;20.40;69.59;100550.34;4972555;28;102240;-88
2022/06/12 07:27:08;;;;;;;6.05;5.28;;;;;;;20.43;69.59;100557.16;4973078;28;104290;-88
2022/06/12 07:29:35;;;;;;;5.45;4.78;;;;;;;20.42;69.44;100553.56;4975992;28;102119;-88
2022/06/12 07:32:03;;;;;;;6.22;5.00;;;;;;;20.43;69.44;100548.84;4975533;28;102318;-88
2022/06/12 07:34:32;;;;;;;;;;;;;;;20.44;69.56;100555.97;4977263;22;102448;-53
2022/06/12 07:37:00;;;;;;;6.18;5.63;;;;;;;20.43;69.44;100554.38;4976145;28;104742;-52
2022/06/12 07:39:31;;;;;;;5.40;4.90;;;;;;;20.42;69.12;100556.34;4969839;28;102144;-52
2022/06/12 07:41:58;;;;;;;5.63;4.88;;;;;;;20.43;69.23;100559.91;4962046;28;102454;-52
2022/06/12 07:44:28;;;;;;;6.55;5.53;;;;;;;20.46;69.60;100560.03;4962491;28;102821;-53
2022/06/12 07:46:57;;;;;;;7.30;5.80;;;;;;;20.46;69.77;100556.47;4955489;28;104008;-52
2022/06/12 07:49:25;;;;;;;5.80;5.05;;;;;;;20.45;68.87;100552.06;4957396;28;102128;-52
2022/06/12 07:51:54;;;;;;;5.70;5.20;;;;;;;20.44;68.97;100550.47;4954969;28;102510;-52
2022/06/12 07:54:22;;;;;;;6.38;5.72;;;;;;;20.45;68.88;100563.13;4964486;28;102493;-52
2022/06/12 07:56:51;;;;;;;5.88;5.28;;;;;;;20.42;68.82;100556.34;4975687;28;104189;-53
2022/06/12 07:59:18;;;;;;;5.30;4.80;;;;;;;20.42;68.72;100552.78;4977053;28;102608;-53
2022/06/12 08:01:45;;;;;;;5.82;5.25;;;;;;;20.43;68.96;100557.16;4974708;28;102182;-52
2022/06/12 08:04:12;;;;;;;5.88;5.28;;;;;;;20.42;68.74;100547.25;4962109;28;102597;-52
2022/06/12 08:06:39;;;;;;;5.55;5.03;;;;;;;20.42;68.67;100547.25;4976229;28;103973;-52
2022/06/12 08:09:07;;;;;;;5.47;4.97;;;;;;;20.43;68.30;100551.63;4973818;28;102269;-51
2022/06/12 08:11:36;;;;;;;5.63;5.13;;;;;;;20.43;68.28;100548.84;4971064;28;102416;-53
2022/06/12 08:14:04;;;;;;;5.40;4.90;;;;;;;20.43;68.31;100549.66;4977264;28;102267;-53
2022/06/12 08:16:33;;;;;;;6.53;5.68;;;;;;;20.40;68.27;100553.91;4974803;28;103721;-53
2022/06/12 08:18:59;;;;;;;8.90;4.88;;;;;;;20.44;68.26;100544.94;4951938;28;102881;-50
2022/06/12 08:21:27;;;;;;;5.70;5.10;;;;;;;20.45;68.36;100552.06;4975284;28;102095;-50
2022/06/12 08:23:57;;;;;;;5.85;5.18;;;;;;;20.43;68.04;100557.94;4976448;28;102152;-51
2022/06/12 08:26:26;;;;;;;5.55;5.05;;;;;;;20.43;67.94;100548.84;4975322;28;104056;-50
2022/06/12 08:28:56;;;;;;;6.63;4.72;;;;;;;20.44;68.13;100550.47;4975357;28;101914;-50
2022/06/12 08:31:27;;;;;;;5.70;5.03;;;;;;;20.45;68.39;100557.59;4975336;28;102429;-51
2022/06/12 08:33:59;;;;;;;5.63;4.93;;;;;;;20.45;68.15;100557.59;4970148;28;102313;-51
2022/06/12 08:36:26;;;;;;;6.28;5.22;;;;;;;20.47;68.42;100556.09;4971952;28;104007;-51
2022/06/12 08:38:53;;;;;;;5.88;5.03;;;;;;;20.45;68.02;100563.13;4975820;28;103725;-50
2022/06/12 08:41:28;;;;;;;4.88;4.38;;;;;;;20.44;67.93;100556.78;4968817;28;102373;-50
2022/06/12 08:44:00;;;;;;;6.95;5.43;;;;;;;20.45;67.75;100552.06;4978424;28;102585;-50
2022/06/12 08:46:37;;;;;;;6.30;5.53;;;;;;;20.44;67.56;100550.47;4963085;28;104073;-50
2022/06/12 08:49:11;;;;;;;5.60;4.88;;;;;;;20.45;67.82;100554.81;4963691;28;102132;-50
2022/06/12 08:51:44;;;;;;;4.82;4.43;;;;;;;20.43;67.55;100554.38;4954509;28;102112;-50
2022/06/12 08:54:18;;;;;;;5.68;4.78;;;;;;;20.42;67.61;100558.31;4969117;28;105675;-50
2022/06/12 08:56:50;;;;;;;5.80;5.03;;;;;;;20.43;67.81;100559.91;4970062;28;103620;-50
2022/06/12 08:59:22;;;;;;;5.70;5.15;;;;;;;20.43;67.77;100549.66;4974328;28;102263;-51
2022/06/12 09:01:50;;;;;;;5.55;5.00;;;;;;;20.45;67.93;100552.06;4969852;28;102132;-51
2022/06/12 09:04:19;;;;;;;5.90;5.40;;;;;;;20.44;68.01;100550.47;4977777;28;102262;-51
2022/06/12 09:06:50;;;;;;;5.72;5.15;;;;;;;20.43;67.89;100554.38;4981493;28;103063;-50
2022/06/12 09:09:30;;;;;;;6.03;5.43;;;;;;;20.43;67.60;100555.19;4972725;28;102527;-50
2022/06/12 09:12:05;;;;;;;6.65;5.70;;;;;;;20.42;67.53;100550.00;4970244;28;102259;-50
2022/06/12 09:14:50;;;;;;;5.47;4.97;;;;;;;20.43;67.51;100546.09;4967066;28;102478;-50
2022/06/12 09:17:29;;;;;;;7.28;5.28;;;;;;;20.46;67.53;100542.66;4968365;28;104160;-51
2022/06/12 09:20:06;;;;;;;6.25;5.63;;;;;;;20.44;67.37;100542.16;4976177;28;102855;-51
2022/06/12 09:22:41;;;;;;;6.53;5.22;;;;;;;20.42;67.44;100541.72;4974399;28;102547;-51
2022/06/12 09:25:15;;;;;;;6.35;5.28;;;;;;;20.44;67.37;100542.16;4986589;28;102217;-51
2022/06/12 09:27:54;;;;;;;6.75;6.03;;;;;;;20.41;67.62;100540.88;4980585;28;103880;-51
2022/06/12 09:30:31;;;;;;;6.85;5.47;;;;;;;20.40;67.42;100534.56;4974275;28;102289;-50
2022/06/12 09:33:08;;;;;;;6.70;5.32;;;;;;;20.40;67.46;100531.78;4979505;28;102285;-51
2022/06/12 09:36:07;;;;;;;6.10;5.50;;;;;;;20.39;67.40;100524.66;4987495;28;102200;-50
2022/06/12 09:38:49;;;;;;;6.38;5.78;;;;;;;20.41;67.64;100529.81;4966232;28;104227;-51
2022/06/12 09:41:21;;;;;;;6.03;5.43;;;;;;;20.40;67.44;100523.50;4973193;28;102323;-51
2022/06/12 09:43:59;;;;;;;7.35;6.28;;;;;;;20.40;67.36;100529.03;4974534;28;102267;-50
2022/06/12 09:46:37;;;;;;;6.00;5.40;;;;;;;20.39;67.38;100521.09;4963942;28;102801;-51
2022/06/12 09:49:28;;;;;;;6.75;5.88;;;;;;;20.38;67.19;100519.47;4967279;28;104123;-52
2022/06/12 09:52:16;;;;;;;6.25;5.50;;;;;;;20.38;67.41;100512.00;4964701;28;102443;-51
2022/06/12 09:54:50;;;;;;;6.57;5.97;;;;;;;20.38;67.78;100514.75;4969776;28;102401;-50
2022/06/12 09:57:33;;;;;;;5.97;5.43;;;;;;;20.39;67.54;100508.06;4974935;28;102462;-51
2022/06/12 10:00:06;;;;;;;6.32;5.72;;;;;;;20.42;68.11;100492.75;4974468;28;104067;-50
2022/06/12 10:02:40;;;;;;;6.15;5.50;;;;;;;20.41;67.42;100507.72;4975519;28;101948;-51
2022/06/12 10:05:15;;;;;;;8.93;5.63;;;;;;;20.39;67.44;100494.25;4974610;28;101991;-50
2022/06/12 10:07:47;;;;;;;6.93;6.30;;;;;;;20.40;67.82;100506.13;4971532;28;102381;-51
2022/06/12 10:10:23;;;;;;;6.30;5.70;;;;;;;20.39;67.31;100488.72;4954987;28;103899;-51
2022/06/12 10:12:57;;;;;;;7.13;6.45;;;;;;;20.40;67.64;100478.47;4954293;28;102008;-51
2022/06/12 10:15:30;;;;;;;6.78;5.32;;;;;;;20.38;67.42;100478.81;4953143;28;102479;-50
2022/06/12 10:18:03;;;;;;;7.32;6.60;;;;;;;20.39;67.54;100463.84;4953515;28;102307;-52
2022/06/12 10:20:38;;;;;;;7.47;6.22;;;;;;;20.39;67.66;100474.09;4967866;28;105845;-51
2022/06/12 10:23:06;;;;;;;6.15;5.55;;;;;;;20.41;67.55;100457.97;4959497;28;102812;-50
2022/06/12 10:25:37;;;;;;;6.85;6.07;;;;;;;20.40;67.58;100467.41;4957314;28;102360;-51
2022/06/12 10:28:06;;;;;;;6.32;5.72;;;;;;;20.40;67.44;100457.16;4958277;28;102442;-50
2022/06/12 10:30:38;;;;;;;6.10;5.55;;;;;;;20.39;67.34;100452.00;4958133;28;103414;-51
2022/06/12 10:33:16;;;;;;;7.00;6.22;;;;;;;20.41;67.61;100449.69;4968887;28;102263;-50
2022/06/12 10:35:55;;;;;;;6.72;5.60;;;;;;;20.40;67.50;100462.69;4982336;28;102557;-50
2022/06/12 10:38:23;;;;;;;9.25;6.03;;;;;;;20.42;67.55;100453.28;4981712;28;102269;-51
2022/06/12 10:40:53;;;;;;;5.80;5.28;;;;;;;20.39;67.25;100452.78;4977293;28;103887;-51
2022/06/12 10:43:28;;;;;;;7.03;6.05;;;;;;;20.36;67.09;100450.72;4978365;28;102082;-51
2022/06/12 10:46:03;;;;;;;6.47;5.88;;;;;;;20.36;67.55;100445.19;4977308;28;102317;-51
2022/06/12 10:48:34;;;;;;;6.45;5.82;;;;;;;20.37;67.35;100454.28;4978836;28;102308;-51
2022/06/12 10:51:06;;;;;;;6.40;5.80;;;;;;;20.36;67.69;100459.00;4976555;28;103941;-51
2022/06/12 10:53:35;;;;;;;5.97;5.32;;;;;;;20.37;67.63;100451.50;4974664;28;102121;-51
2022/06/12 10:56:16;;;;;;;;;;;;;;;20.36;67.54;100456.25;4976178;28;103249;-51
2022/06/12 10:59:16;;;;;;;6.40;5.78;;;;;;;20.34;67.52;100453.03;4979383;28;102210;-51
2022/06/12 11:01:57;;;;;;;6.20;5.50;;;;;;;20.34;67.37;100447.50;4977272;28;107733;-50
2022/06/12 11:04:35;;;;;;;7.13;6.30;;;;;;;20.38;67.77;100448.44;4964857;28;102547;-51
2022/06/12 11:07:20;;;;;;;6.88;6.00;;;;;;;20.37;67.75;100446.00;4960681;28;103687;-51
2022/06/12 11:10:03;;;;;;;6.40;5.80;;;;;;;20.34;67.57;100447.50;4964811;28;102441;-50
2022/06/12 11:12:47;;;;;;;6.88;6.18;;;;;;;20.32;67.42;100444.25;4975349;28;103941;-50
2022/06/12 11:15:27;;;;;;;6.75;6.03;;;;;;;20.33;67.45;100440.34;4976632;28;102193;-50
2022/06/12 11:18:01;;;;;;;7.90;6.05;;;;;;;20.32;67.52;100433.22;4969473;28;102588;-50
2022/06/12 11:20:35;;;;;;;6.70;5.93;;;;;;;20.32;67.21;100435.97;4984193;28;102247;-52
2022/06/12 11:23:20;;;;;;;6.38;5.65;;;;;;;20.33;67.39;100434.81;4977518;28;104111;-51
2022/06/12 11:25:59;;;;;;;6.28;5.68;;;;;;;20.31;67.69;100437.13;4984811;28;102001;-50
2022/06/12 11:28:40;;;;;;;6.30;5.70;;;;;;;20.35;67.76;100421.47;4975119;28;102538;-50
2022/06/12 11:31:17;;;;;;;7.38;5.82;;;;;;;20.37;67.61;100427.44;4972432;28;102747;-50
2022/06/12 11:33:57;;;;;;;5.78;5.18;;;;;;;20.37;67.26;100415.59;4967675;28;104120;-51
2022/06/12 11:36:36;;;;;;;6.72;5.47;;;;;;;20.34;66.93;100403.28;4975822;28;102441;-50
2022/06/12 11:39:26;;;;;;;6.97;5.70;;;;;;;20.37;67.30;100408.09;4957916;28;102308;-51
2022/06/12 11:42:10;;;;;;;7.05;5.38;;;;;;;20.42;67.74;100414.56;4975081;28;102332;-50
2022/06/12 11:44:49;;;;;;;5.47;5.00;;;;;;;20.43;67.59;100405.13;4957614;28;103986;-51
2022/06/12 11:47:29;;;;;;;6.00;5.43;;;;;;;20.39;67.30;100389.22;4981611;28;102496;-51
2022/06/12 11:50:03;;;;;;;;;;;;;;;20.36;66.96;100397.41;4977056;28;102617;-50
2022/06/12 11:52:47;;;;;;;5.57;5.07;;;;;;;20.38;66.77;100406.97;4973582;28;102651;-50
2022/06/12 11:55:26;;;;;;;5.20;4.70;;;;;;;20.39;67.05;100400.28;4972809;28;104039;-51